createdAt,value
2022-10-09T00:02:33.466Z,10.35
2022-10-09T00:05:36.572Z,10.33
2022-10-09T00:08:40.028Z,10.25
2022-10-09T00:11:42.892Z,10.14
2022-10-09T00:14:45.464Z,10.25
2022-10-09T00:17:48.371Z,10.22
2022-10-09T00:20:51.031Z,10.21
2022-10-09T00:23:56.061Z,10.18
2022-10-09T00:26:58.600Z,10.24
2022-10-09T00:30:01.805Z,10.30
2022-10-09T00:33:04.426Z,10.35
2022-10-09T00:36:26.785Z,10.33
2022-10-09T00:39:29.427Z,10.29
2022-10-09T00:42:32.314Z,10.29
2022-10-09T00:45:34.944Z,10.23
2022-10-09T00:48:37.915Z,10.10
2022-10-09T00:51:42.538Z,10.07
2022-10-09T00:54:45.471Z,10.02
2022-10-09T00:57:48.123Z,10.04
2022-10-09T01:00:51.048Z,10.14
2022-10-09T01:03:53.697Z,10.11
2022-10-09T01:07:14.765Z,10.00
2022-10-09T01:10:46.080Z,9.91
2022-10-09T01:14:07.211Z,9.90
2022-10-09T01:17:36.874Z,10.15
2022-10-09T01:20:57.276Z,10.09
2022-10-09T01:24:13.236Z,10.16
2022-10-09T01:27:22.164Z,10.19
2022-10-09T01:30:24.897Z,10.26
2022-10-09T01:33:30.750Z,10.32
2022-10-09T01:36:35.396Z,10.43
2022-10-09T01:39:39.906Z,10.40
2022-10-09T01:42:43.119Z,10.36
2022-10-09T01:45:47.808Z,10.35
2022-10-09T01:49:30.836Z,10.26
2022-10-09T01:52:42.438Z,10.42
2022-10-09T01:55:45.089Z,10.47
2022-10-09T01:59:02.212Z,10.42
2022-10-09T02:02:07.312Z,10.34
2022-10-09T02:05:15.114Z,10.34
2022-10-09T02:08:20.635Z,10.34
2022-10-09T02:11:27.209Z,10.36
2022-10-09T02:14:30.027Z,10.36
2022-10-09T02:17:37.484Z,10.29
2022-10-09T02:20:45.396Z,10.26
2022-10-09T02:23:51.037Z,10.20
2022-10-09T02:26:55.217Z,9.93
2022-10-09T02:29:59.547Z,9.94
2022-10-09T02:33:02.119Z,9.93
2022-10-09T02:36:05.356Z,10.03
2022-10-09T02:39:08.464Z,9.95
2022-10-09T02:42:11.399Z,10.05
2022-10-09T02:45:14.063Z,10.10
2022-10-09T02:48:17.037Z,10.04
2022-10-09T02:51:19.960Z,10.03
2022-10-09T02:54:22.814Z,10.07
2022-10-09T02:57:25.371Z,10.06
2022-10-09T03:00:28.421Z,10.02
2022-10-09T03:03:31.825Z,10.07
2022-10-09T03:06:34.998Z,10.12
2022-10-09T03:09:37.540Z,10.12
2022-10-09T03:12:40.427Z,10.27
2022-10-09T03:15:42.997Z,10.27
2022-10-09T03:18:47.456Z,10.27
2022-10-09T03:21:49.964Z,10.42
2022-10-09T03:24:52.868Z,10.38
2022-10-09T03:27:55.480Z,10.39
2022-10-09T03:30:58.474Z,10.50
2022-10-09T03:34:01.171Z,10.48
2022-10-09T03:37:04.912Z,10.46
2022-10-09T03:40:07.955Z,10.48
2022-10-09T03:43:10.832Z,10.54
2022-10-09T03:46:13.476Z,10.55
2022-10-09T03:49:16.485Z,10.55
2022-10-09T03:52:19.005Z,10.57
2022-10-09T03:55:21.844Z,10.55
2022-10-09T03:58:24.647Z,10.48
2022-10-09T04:01:27.630Z,10.45
2022-10-09T04:04:30.580Z,10.45
2022-10-09T04:07:33.173Z,10.40
2022-10-09T04:10:41.487Z,10.50
2022-10-09T04:13:44.049Z,10.49
2022-10-09T04:16:46.932Z,10.72
2022-10-09T04:19:49.666Z,10.81
2022-10-09T04:22:52.942Z,10.91
2022-10-09T04:25:56.875Z,11.09
2022-10-09T04:29:00.307Z,11.26
2022-10-09T04:32:02.906Z,11.29
2022-10-09T04:35:06.539Z,11.30
2022-10-09T04:38:09.097Z,11.25
2022-10-09T04:41:12.005Z,11.32
2022-10-09T04:44:14.655Z,11.30
2022-10-09T04:47:17.661Z,11.24
2022-10-09T04:50:20.228Z,11.34
2022-10-09T04:53:34.581Z,11.24
2022-10-09T04:56:37.633Z,11.26
2022-10-09T04:59:40.611Z,11.38
2022-10-09T05:02:43.193Z,11.41
2022-10-09T05:05:46.057Z,11.43
2022-10-09T05:08:49.400Z,11.45
2022-10-09T05:11:52.315Z,11.46
2022-10-09T05:14:54.871Z,11.51
2022-10-09T05:17:57.854Z,11.58
2022-10-09T05:21:03.728Z,11.68
2022-10-09T05:24:10.241Z,11.77
2022-10-09T05:27:13.279Z,11.82
2022-10-09T05:30:16.253Z,11.85
2022-10-09T05:33:19.054Z,11.92
2022-10-09T05:36:22.364Z,11.93
2022-10-09T05:39:25.015Z,11.90
2022-10-09T05:42:27.872Z,11.94
2022-10-09T05:45:30.455Z,11.96
2022-10-09T05:48:33.458Z,11.98
2022-10-09T05:51:39.330Z,12.11
2022-10-09T05:54:42.313Z,12.12
2022-10-09T05:57:44.887Z,12.20
2022-10-09T06:00:47.692Z,12.21
2022-10-09T06:03:52.336Z,12.27
2022-10-09T06:06:54.982Z,12.37
2022-10-09T06:09:57.835Z,12.42
2022-10-09T06:13:00.408Z,12.36
2022-10-09T06:16:03.268Z,12.48
2022-10-09T06:19:07.445Z,12.54
2022-10-09T06:22:10.363Z,12.55
2022-10-09T06:25:12.946Z,12.63
2022-10-09T06:28:15.916Z,12.74
2022-10-09T06:31:24.398Z,12.81
2022-10-09T06:34:27.478Z,12.88
2022-10-09T06:37:30.011Z,12.92
2022-10-09T06:40:37.133Z,12.98
2022-10-09T06:43:40.453Z,13.03
2022-10-09T06:46:44.049Z,13.10
2022-10-09T06:49:46.635Z,13.12
2022-10-09T06:52:50.341Z,13.11
2022-10-09T06:55:55.265Z,13.11
2022-10-09T06:59:04.316Z,13.06
2022-10-09T07:02:06.947Z,13.03
2022-10-09T07:05:10.048Z,13.01
2022-10-09T07:08:12.539Z,13.00
2022-10-09T07:11:23.625Z,13.00
2022-10-09T07:14:26.393Z,13.05
2022-10-09T07:17:29.293Z,13.19
2022-10-09T07:20:31.916Z,13.42
2022-10-09T07:23:35.990Z,13.66
2022-10-09T07:26:41.517Z,13.77
2022-10-09T07:29:44.477Z,14.00
2022-10-09T07:32:47.269Z,14.14
2022-10-09T07:35:57.737Z,14.42
2022-10-09T07:39:00.413Z,14.62
2022-10-09T07:42:03.796Z,14.85
2022-10-09T07:45:06.751Z,14.95
2022-10-09T07:48:09.924Z,15.08
2022-10-09T07:51:16.319Z,15.22
2022-10-09T07:54:19.186Z,15.37
2022-10-09T07:57:21.787Z,15.64
2022-10-09T08:00:24.760Z,15.72
2022-10-09T08:03:27.606Z,15.87
2022-10-09T08:06:31.118Z,15.91
2022-10-09T08:09:33.995Z,16.02
2022-10-09T08:12:36.536Z,16.32
2022-10-09T08:15:43.832Z,16.37
2022-10-09T08:18:47.590Z,16.49
2022-10-09T08:21:50.590Z,16.54
2022-10-09T08:24:53.244Z,16.62
2022-10-09T08:27:56.389Z,16.75
2022-10-09T08:30:59.169Z,16.88
2022-10-09T08:34:03.392Z,16.89
2022-10-09T08:37:06.174Z,17.00
2022-10-09T08:40:17.301Z,17.00
2022-10-09T08:43:29.970Z,17.13
2022-10-09T08:46:48.010Z,17.21
2022-10-09T08:49:57.808Z,17.40
2022-10-09T08:53:26.634Z,17.66
2022-10-09T08:56:30.346Z,17.71
2022-10-09T08:59:33.348Z,17.65
2022-10-09T09:03:06.186Z,17.86
2022-10-09T09:06:51.034Z,17.98
2022-10-09T09:09:56.356Z,18.18
2022-10-09T09:13:36.442Z,17.95
2022-10-09T09:16:59.158Z,18.20
2022-10-09T09:20:32.054Z,18.15
2022-10-09T09:23:41.156Z,18.48
2022-10-09T09:26:48.997Z,18.49
2022-10-09T09:30:13.266Z,18.74
2022-10-09T09:33:41.118Z,18.68
2022-10-09T09:36:54.944Z,18.88
2022-10-09T09:43:23.532Z,18.82
2022-10-09T09:46:30.382Z,18.66
2022-10-09T09:49:32.987Z,18.90
2022-10-09T09:52:40.069Z,18.87
2022-10-09T09:55:42.711Z,18.92
2022-10-09T09:58:51.247Z,18.88
2022-10-09T10:02:13.328Z,18.95
2022-10-09T10:05:22.090Z,19.03
2022-10-09T10:08:28.049Z,18.98
2022-10-09T10:11:35.021Z,19.17
2022-10-09T10:14:37.590Z,19.13
2022-10-09T10:17:40.719Z,19.31
2022-10-09T10:20:46.547Z,19.51
2022-10-09T10:24:09.036Z,19.54
2022-10-09T10:27:33.615Z,19.77
2022-10-09T10:30:37.957Z,19.82
2022-10-09T10:33:45.100Z,19.79
2022-10-09T10:36:54.605Z,19.88
2022-10-09T10:40:23.852Z,19.70
2022-10-09T10:43:35.901Z,19.70
2022-10-09T10:46:49.050Z,19.72
2022-10-09T10:49:52.570Z,19.78
2022-10-09T10:53:20.033Z,19.85
2022-10-09T10:56:27.503Z,19.97
2022-10-09T10:59:36.384Z,19.83
2022-10-09T11:02:58.091Z,19.81
2022-10-09T11:06:18.655Z,19.63
2022-10-09T11:09:57.396Z,19.57
2022-10-09T11:13:12.484Z,19.45
2022-10-09T11:16:36.567Z,19.92
2022-10-09T11:20:05.738Z,20.14
2022-10-09T11:23:27.052Z,19.58
2022-10-09T11:26:48.729Z,19.64
2022-10-09T11:30:01.707Z,19.58
2022-10-09T11:33:26.975Z,19.68
2022-10-09T11:36:44.004Z,19.75
2022-10-09T11:39:46.938Z,19.86
2022-10-09T11:43:01.856Z,20.04
2022-10-09T11:46:20.379Z,19.98
2022-10-09T11:49:31.074Z,20.20
2022-10-09T11:53:01.331Z,20.20
2022-10-09T11:56:07.459Z,19.81
2022-10-09T11:59:23.344Z,19.47
2022-10-09T12:02:29.791Z,19.17
2022-10-09T12:05:43.079Z,19.31
2022-10-09T12:09:01.612Z,19.29
2022-10-09T12:12:07.997Z,19.25
2022-10-09T12:15:24.567Z,19.72
2022-10-09T12:18:32.416Z,19.69
2022-10-09T12:21:40.926Z,19.75
2022-10-09T12:24:53.702Z,19.97
2022-10-09T12:27:58.652Z,19.90
2022-10-09T12:31:05.419Z,20.05
2022-10-09T12:34:26.678Z,19.81
2022-10-09T12:37:35.369Z,19.75
2022-10-09T12:40:38.491Z,19.97
2022-10-09T12:43:45.629Z,19.80
2022-10-09T12:46:48.313Z,19.77
2022-10-09T12:50:17.274Z,19.88
2022-10-09T12:53:30.025Z,19.75
2022-10-09T12:56:36.864Z,19.82
2022-10-09T12:59:40.215Z,19.91
2022-10-09T13:02:43.290Z,19.87
2022-10-09T13:05:46.977Z,19.75
2022-10-09T13:08:58.065Z,19.65
2022-10-09T13:12:28.560Z,19.57
2022-10-09T13:15:36.992Z,19.37
2022-10-09T13:18:39.590Z,19.37
2022-10-09T13:21:42.432Z,19.54
2022-10-09T13:24:45.102Z,19.67
2022-10-09T13:27:48.221Z,19.81
2022-10-09T13:30:51.344Z,19.70
2022-10-09T13:33:54.299Z,19.62
2022-10-09T13:36:57.089Z,19.60
2022-10-09T13:40:00.391Z,19.53
2022-10-09T13:43:03.094Z,19.58
2022-10-09T13:46:06.462Z,19.62
2022-10-09T13:49:09.148Z,19.51
2022-10-09T13:52:12.343Z,19.49
2022-10-09T13:55:15.492Z,19.53
2022-10-09T13:58:18.411Z,19.60
2022-10-09T14:01:21.423Z,19.58
2022-10-09T14:04:24.454Z,19.52
2022-10-09T14:07:27.413Z,19.49
2022-10-09T14:10:30.300Z,19.35
2022-10-09T14:13:33.540Z,19.36
2022-10-09T14:16:36.380Z,19.39
2022-10-09T14:19:38.947Z,19.27
2022-10-09T14:22:42.147Z,19.26
2022-10-09T14:25:44.685Z,19.22
2022-10-09T14:28:48.306Z,19.17
2022-10-09T14:31:51.682Z,19.11
2022-10-09T14:34:54.840Z,18.97
2022-10-09T14:37:58.468Z,19.03
2022-10-09T14:41:01.921Z,18.96
2022-10-09T14:44:05.028Z,18.86
2022-10-09T14:47:07.912Z,18.88
2022-10-09T14:50:10.649Z,18.84
2022-10-09T14:53:13.492Z,18.84
2022-10-09T14:56:21.093Z,18.79
2022-10-09T14:59:24.646Z,18.71
2022-10-09T15:02:27.215Z,18.66
2022-10-09T15:05:30.695Z,18.57
2022-10-09T15:08:35.743Z,18.67
2022-10-09T15:11:38.660Z,18.58
2022-10-09T15:14:41.200Z,18.48
2022-10-09T15:17:44.012Z,18.42
2022-10-09T15:20:47.032Z,18.34
2022-10-09T15:23:50.822Z,18.17
2022-10-09T15:26:53.439Z,18.10
2022-10-09T15:29:56.249Z,17.95
2022-10-09T15:33:01.988Z,17.82
2022-10-09T15:36:04.927Z,17.70
2022-10-09T15:39:09.108Z,17.52
2022-10-09T15:42:12.056Z,17.47
2022-10-09T15:45:14.623Z,17.26
2022-10-09T15:48:20.447Z,17.17
2022-10-09T15:51:24.304Z,17.01
2022-10-09T15:54:27.829Z,16.84
2022-10-09T15:57:30.419Z,16.69
2022-10-09T16:00:42.024Z,16.40
2022-10-09T16:03:46.024Z,16.29
2022-10-09T16:06:49.244Z,16.12
2022-10-09T16:09:52.576Z,15.93
2022-10-09T16:12:55.367Z,15.84
2022-10-09T16:15:59.068Z,15.74
2022-10-09T16:19:03.994Z,15.52
2022-10-09T16:22:07.119Z,15.61
2022-10-09T16:25:10.189Z,15.49
2022-10-09T16:28:13.312Z,15.48
2022-10-09T16:31:24.485Z,15.55
2022-10-09T16:34:27.560Z,15.52
2022-10-09T16:37:33.456Z,15.74
2022-10-09T16:41:02.494Z,15.84
2022-10-09T16:44:13.089Z,15.91
2022-10-09T16:47:15.911Z,15.99
2022-10-09T16:50:18.604Z,16.01
2022-10-09T16:53:21.435Z,16.04
2022-10-09T16:56:27.034Z,16.01
2022-10-09T16:59:30.060Z,15.97
2022-10-09T17:02:33.419Z,15.91
2022-10-09T17:05:40.786Z,15.82
2022-10-09T17:08:43.435Z,15.79
2022-10-09T17:11:46.406Z,15.72
2022-10-09T17:14:49.104Z,15.65
2022-10-09T17:17:52.257Z,15.56
2022-10-09T17:20:55.188Z,15.50
2022-10-09T17:24:00.490Z,15.46
2022-10-09T17:27:04.897Z,15.46
2022-10-09T17:30:08.539Z,15.38
2022-10-09T17:33:11.105Z,15.39
2022-10-09T17:36:17.744Z,15.25
2022-10-09T17:39:20.313Z,15.14
2022-10-09T17:42:24.774Z,15.09
2022-10-09T17:45:27.304Z,15.15
2022-10-09T17:48:32.948Z,15.21
2022-10-09T17:51:39.536Z,15.14
2022-10-09T17:54:42.420Z,15.14
2022-10-09T17:57:44.988Z,14.83
2022-10-09T18:00:48.852Z,15.05
2022-10-09T18:03:52.373Z,14.98
2022-10-09T18:06:56.555Z,14.91
2022-10-09T18:09:59.471Z,14.91
2022-10-09T18:13:02.053Z,14.89
2022-10-09T18:16:13.889Z,14.81
2022-10-09T18:19:21.720Z,14.80
2022-10-09T18:22:27.727Z,14.75
2022-10-09T18:25:33.660Z,14.72
2022-10-09T18:28:37.094Z,14.59
2022-10-09T18:31:39.918Z,14.63
2022-10-09T18:34:46.360Z,14.49
2022-10-09T18:37:49.367Z,14.38
2022-10-09T18:40:52.259Z,14.37
2022-10-09T18:43:55.159Z,14.27
2022-10-09T18:46:59.122Z,14.19
2022-10-09T18:50:06.389Z,14.03
2022-10-09T18:53:10.841Z,13.80
2022-10-09T18:56:14.476Z,13.95
2022-10-09T18:59:21.636Z,13.91
2022-10-09T19:02:27.186Z,13.95
2022-10-09T19:05:30.241Z,13.89
2022-10-09T19:08:34.837Z,13.88
2022-10-09T19:11:38.273Z,13.84
2022-10-09T19:14:41.194Z,13.80
2022-10-09T19:17:44.159Z,13.58
2022-10-09T19:20:47.946Z,13.59
2022-10-09T19:23:52.640Z,13.53
2022-10-09T19:26:55.251Z,13.50
2022-10-09T19:29:58.300Z,13.51
2022-10-09T19:33:00.900Z,13.25
2022-10-09T19:36:04.750Z,13.21
2022-10-09T19:39:08.330Z,13.29
2022-10-09T19:42:11.134Z,13.32
2022-10-09T19:45:13.720Z,13.28
2022-10-09T19:48:18.092Z,13.20
2022-10-09T19:51:26.477Z,12.89
2022-10-09T19:54:31.832Z,12.90
2022-10-09T19:57:34.436Z,12.61
2022-10-09T20:00:46.639Z,12.62
2022-10-09T20:04:07.737Z,12.59
2022-10-09T20:07:12.638Z,12.59
2022-10-09T20:10:16.476Z,12.56
2022-10-09T20:13:19.061Z,12.51
2022-10-09T20:16:22.456Z,12.47
2022-10-09T20:19:25.163Z,12.40
2022-10-09T20:22:28.013Z,12.39
2022-10-09T20:25:30.732Z,12.29
2022-10-09T20:28:35.962Z,12.37
2022-10-09T20:31:39.515Z,12.32
2022-10-09T20:34:42.443Z,12.31
2022-10-09T20:37:45.012Z,12.26
2022-10-09T20:40:48.018Z,12.17
2022-10-09T20:43:53.071Z,12.08
2022-10-09T20:46:56.932Z,11.96
2022-10-09T20:49:59.585Z,12.12
2022-10-09T20:53:02.541Z,12.19
2022-10-09T20:56:08.835Z,12.17
2022-10-09T20:59:13.838Z,12.08
2022-10-09T21:02:16.483Z,12.16
2022-10-09T21:05:19.390Z,12.12
2022-10-09T21:08:22.007Z,11.91
2022-10-09T21:11:25.527Z,11.73
2022-10-09T21:14:28.141Z,11.56
2022-10-09T21:17:31.153Z,11.40
2022-10-09T21:20:37.359Z,11.31
2022-10-09T21:23:41.344Z,11.25
2022-10-09T21:26:47.021Z,11.26
2022-10-09T21:29:49.915Z,11.27
2022-10-09T21:32:52.722Z,11.15
2022-10-09T21:35:56.068Z,11.05
2022-10-09T21:38:59.026Z,11.10
2022-10-09T21:42:01.896Z,11.09
2022-10-09T21:45:04.764Z,11.04
2022-10-09T21:48:08.364Z,10.99
2022-10-09T21:51:10.999Z,10.79
2022-10-09T21:54:14.269Z,10.87
2022-10-09T21:57:17.099Z,10.75
2022-10-09T22:00:26.267Z,10.69
2022-10-09T22:03:32.316Z,10.57
2022-10-09T22:06:34.892Z,10.36
2022-10-09T22:09:38.089Z,10.44
2022-10-09T22:12:40.660Z,10.43
2022-10-09T22:15:48.855Z,10.43
2022-10-09T22:18:53.406Z,10.37
2022-10-09T22:21:56.249Z,10.35
2022-10-09T22:25:00.377Z,10.37
2022-10-09T22:28:03.811Z,10.18
2022-10-09T22:31:15.196Z,10.09
2022-10-09T22:34:18.514Z,9.96
2022-10-09T22:37:21.095Z,9.93
2022-10-09T22:40:24.431Z,9.84
2022-10-09T22:43:26.956Z,9.83
2022-10-09T22:46:36.486Z,9.70
2022-10-09T22:49:39.101Z,9.57
2022-10-09T22:52:42.043Z,9.61
2022-10-09T22:55:44.558Z,9.52
2022-10-09T22:58:48.953Z,9.55
2022-10-09T23:01:55.768Z,9.49
2022-10-09T23:04:58.706Z,9.52
2022-10-09T23:08:01.253Z,9.37
2022-10-09T23:11:04.245Z,9.33
2022-10-09T23:14:06.917Z,9.36
2022-10-09T23:17:09.828Z,9.34
2022-10-09T23:20:12.369Z,9.27
2022-10-09T23:23:15.311Z,9.15
2022-10-09T23:26:21.315Z,9.23
2022-10-09T23:29:24.568Z,9.16
2022-10-09T23:32:27.215Z,9.16
2022-10-09T23:35:30.169Z,9.01
2022-10-09T23:38:33.374Z,9.07
2022-10-09T23:41:37.867Z,9.10
2022-10-09T23:44:40.528Z,9.04
2022-10-09T23:47:43.576Z,8.93
2022-10-09T23:50:48.766Z,9.08
2022-10-09T23:53:52.143Z,8.99
2022-10-09T23:56:54.753Z,9.08
2022-10-09T23:59:57.621Z,9.03
